Tiempo atmosférico en la estación meteorológica de Tarazona, Zaragoza (475 m.)



Fecha
DESCASC
Temp. máxima en grados centígrados (hora)
DESCASC
Temp. mínima en grados centígrados (hora)
DESCASC
Temp. media en grados centígrados
DESCASC
Racha de viento máxima en m/sg (hora)
DESCASC
Velocidad máxima media en intervalos de 10 minutos(hora)
DESCASC
Precipitaciones diarias en mm
DESCASC
Precipitaciones de 00:00 a 06:00 en mm
DESCASC
Precipitaciones de 06:00 a 12:00 en mm
DESCASC
Precipitaciones de 12:00 a 18:00 en mm
DESCASC
Precipitaciones de 18:00 a 24:00 en mm
DESCASC
13-10-2019 28.8 (16:50) 14.1 (09:00) 21.4 11.39 (17:10) 6.39 (17:30) 0 0 0 0 0
12-10-2019 25.9 (17:20) 16.5 (08:30) 21.2 12.22 (15:40) 6.94 (17:30) 0 0 0 0 0
10-10-2019 21.4 (16:40) 9.4 (00:00) 15.4 5.83 (13:10) 3.06 (02:50) 0 0 0 0 0
09-10-2019 19.8 (16:40) 12.4 (00:00) 16.1 10.28 (20:30) 5.56 (20:30) 0 0 0 0 0
08-10-2019 28.4 (16:40) 12.1 (00:00) 20.3 5.28 (13:40) 3.33 (17:20) 0 0 0 0 0
07-10-2019 25.3 (16:50) 11.1 (00:00) 18.2 11.94 (17:40) 6.11 (14:20) 0 0 0 0 0
06-10-2019 21.9 (14:30) 10.1 (00:00) 16 10.56 (19:40) 5.83 (19:40) 0 0 0 0 0
05-10-2019 25.4 (17:10) 14.8 (08:30) 20.1 6.39 (17:20) 3.61 (11:00) 0 0 0 0 0
04-10-2019 25 (17:00) 11.3 (00:00) 18.2 7.5 (20:20) 4.17 (13:10) 0 0 0 0 0
03-10-2019 25 (17:00) 9.9 (00:00) 17.4 10.28 (17:20) 5.28 (18:10) 0 0 0 0 0
02-10-2019 21.3 (16:30) 14.1 (00:00) 17.7 13.89 (13:20) 8.06 (13:40) 0 0 0 0 0
01-10-2019 26.5 (16:10) 12.5 (00:00) 19.5 8.89 (20:20) 4.17 (16:00) 0 0 0 0 0
30-09-2019 27.6 (17:30) 12.6 (00:00) 20.1 4.72 (16:40) 3.33 (20:50) 0 0 0 0 0
29-09-2019 27.3 (17:30) 11.5 (00:00) 19.4 5.83 (14:40) 3.06 (14:10) 0 0 0 0 0
28-09-2019 26.3 (17:40) 12.7 (00:00) 19.5 6.11 (15:10) 3.61 (14:40) 0 0 0 0 0
27-09-2019 26.2 (16:30) 11.7 (00:00) 19 5.83 (12:50) 3.33 (12:40) 0 0 0 0 0
26-09-2019 28 (16:40) 11.4 (00:00) 19.7 8.33 (15:30) 4.17 (17:30) 0 0 0 0 0
25-09-2019 23.3 (15:50) 14.8 (00:00) 19 7.5 (18:20) 4.17 (18:00) 0 0 0 0 0
24-09-2019 28.4 (16:20) 14.3 (00:00) 21.3 12.78 (14:10) 6.11 (18:40) 0 0 0 0 0
23-09-2019 24.7 (17:00) 10.6 (00:00) 17.7 8.33 (14:10) 4.44 (14:20) 0 0 0 0 0
22-09-2019 23.8 (15:50) 16.1 (00:00) 19.9 9.44 (13:00) 5 (12:40) 0.4 0.4 0 0 0
21-09-2019 27.5 (16:20) 16.9 (00:00) 22.2 9.17 (16:20) 4.72 (15:50) 0 0 0 0 0
20-09-2019 26.4 (16:30) 14.7 (00:00) 20.5 16.39 (19:30) 6.94 (19:30) 3.2 0 0 0 3.2
19-09-2019 25.6 (18:10) 13.9 (00:00) 19.8 4.44 (12:20) 2.78 (12:20) 0 0 0 0 0
18-09-2019 26.7 (16:50) 15.4 (00:00) 21.1 12.78 (01:40) 6.94 (01:30) 2.2 0 0 2.2 0
17-09-2019 28.7 (17:10) 17.4 (00:00) 23.1 5.56 (23:59) 3.89 (23:59) 0 0 0 0 0
16-09-2019 26.3 (17:30) 17 (00:00) 21.6 5.83 (17:00) 3.33 (17:00) 0 0 0 0 0

Gráficas

Temp. máximas Temp. mínimas Temp. medias Precipitaciones Rachas de viento máximas Velocidades máximas media en intervalos de 10 minutos

Datos horarios

Fecha y hora oficial Temperatura (ºC) Velocidad del viento (km/h) Dirección del viento Racha (km/h) Dirección de racha Precipitación (mm) Presión (hPa) Tendencia (hPa) Humedad (%)
2019-10-15 23:00:00 11.5 5 Sudoeste 10 Oeste 0 -- -- 56
2019-10-15 22:00:00 12.4 6 Oeste 19 Noroeste 0 -- -- 53
2019-10-15 21:00:00 13.5 9 Oeste 21 Oeste 0 -- -- 50
2019-10-15 20:00:00 14.5 9 Oeste 24 Oeste 0 -- -- 47
2019-10-15 19:00:00 16.2 13 Oeste 34 Oeste 0 -- -- 43
2019-10-15 18:00:00 17.7 13 Oeste 33 Oeste 0 -- -- 40
2019-10-15 17:00:00 19.2 12 Oeste 28 Sudoeste 0 -- -- 37
2019-10-15 16:00:00 17.8 5 Norte 18 Este 0 -- -- 42
2019-10-15 15:00:00 16.7 6 Este 23 Nordeste 0 -- -- 46
2019-10-15 14:00:00 16.2 10 Nordeste 24 Oeste 0 -- -- 48
2019-10-15 13:00:00 17.5 12 Oeste 33 Oeste 0 -- -- 41
2019-10-15 12:00:00 14.8 22 Oeste 40 Oeste 0 -- -- 46
2019-10-15 11:00:00 13.8 18 Oeste 41 Oeste 0 -- -- 52
2019-10-15 10:00:00 11.4 23 Oeste 43 Sudoeste 0 -- -- 57
2019-10-15 09:00:00 9.8 15 Oeste 35 Oeste 0 -- -- 62
2019-10-15 08:00:00 9.5 16 Oeste 35 Oeste 0 -- -- 64
2019-10-15 07:00:00 9.1 10 Oeste 23 Oeste 0 -- -- 68
2019-10-15 06:00:00 9.3 6 Oeste 36 Oeste 0 -- -- 67
2019-10-15 05:00:00 10.5 13 Oeste 36 Oeste 0 -- -- 63
2019-10-15 04:00:00 10.9 14 Oeste 34 Oeste 0 -- -- 62
2019-10-15 03:00:00 11.3 16 Oeste 40 Oeste 0 -- -- 62
2019-10-15 02:00:00 11.6 14 Oeste 33 Noroeste 0 -- -- 64
2019-10-15 01:00:00 11.4 8 Sudoeste 23 Noroeste 0 -- -- 69
2019-10-15 00:00:00 11.7 14 Oeste 43 Sudoeste 0 -- -- 68
2019-10-14 23:00:00 12.1 22 Oeste 49 Sudoeste 0 -- -- 67
2019-10-14 22:00:00 11.4 18 Oeste 58 Oeste 0 -- -- 76
2019-10-14 21:00:00 13.1 24 Oeste 67 Oeste 0 -- -- 59
2019-10-14 20:00:00 16.9 30 Oeste 73 Sudoeste 0 -- -- 48
2019-10-14 19:00:00 20.7 23 Sudoeste 45 Sudoeste 0 -- -- 37
2019-10-14 18:00:00 22.2 22 Sudoeste 42 Sudoeste 0 -- -- 37
2019-10-14 17:00:00 23.3 20 Sudoeste 42 Sudoeste 0 -- -- 36
2019-10-14 16:00:00 21.9 15 Oeste 39 Oeste 0 -- -- 49
2019-10-14 15:00:00 21.4 18 Sudeste 35 Sur 0 -- -- 52
2019-10-14 14:00:00 21.5 15 Sudoeste 42 Sudoeste 0 -- -- 53
2019-10-14 13:00:00 21.2 19 Sudeste 41 Sudeste 0 -- -- 64
2019-10-14 12:00:00 20.4 20 Sudeste 43 Sudeste 0 -- -- 64
2019-10-14 11:00:00 18.5 13 Sudeste 39 Sudeste 0 -- -- 73
2019-10-14 10:00:00 16.9 19 Sudeste 44 Sudeste 0 -- -- 88
2019-10-14 09:00:00 16.6 13 Sudeste 50 Sudeste 0 -- -- 89
2019-10-14 08:00:00 16.8 18 Sudeste 54 Sudeste 0 -- -- 86
2019-10-14 07:00:00 16.6 31 Sudeste 55 Sudeste 0 -- -- 89
2019-10-14 06:00:00 16.5 21 Sudeste 39 Sudeste 0 -- -- 91
2019-10-14 05:00:00 16.6 11 Este 24 Sudeste 0 -- -- 88
2019-10-14 04:00:00 17.1 6 Este 16 Este 0 -- -- 86
2019-10-14 03:00:00 17.2 10 Este 24 Este 0 -- -- 85
2019-10-14 02:00:00 17.6 3 Este 16 Sudeste 0 -- -- 84
2019-10-14 01:00:00 18.6 4 Sudoeste 27 Sudeste 0 -- -- 79
2019-10-14 00:00:00 19.1 8 Sudeste 19 Este 0 -- -- 74
2019-10-13 23:00:00 19.9 6 Sur 22 Sudeste 0 -- -- 70
2019-10-13 22:00:00 21.7 12 Sur 21 Sudeste 0 -- -- 65
2019-10-13 21:00:00 23.1 10 Sur 26 Sudeste 0 -- -- 59
2019-10-13 20:00:00 23.9 9 Sudeste 21 Sudeste 0 -- -- 52
2019-10-13 19:00:00 26.2 9 Sur 26 Sudoeste 0 -- -- 40
2019-10-13 18:00:00 27.6 14 Sudoeste 41 Sudoeste 0 -- -- 25
2019-10-13 17:00:00 28.6 14 Sur 38 Sudoeste 0 -- -- 25
2019-10-13 16:00:00 28.1 11 Sur 38 Sur 0 -- -- 29
2019-10-13 15:00:00 27.7 18 Sur 36 Sudoeste 0 -- -- 34
2019-10-13 14:00:00 25.9 7 Sudeste 32 Sudeste 0 -- -- 46
2019-10-13 13:00:00 23.4 5 Este 19 Nordeste 0 -- -- 59
2019-10-13 12:00:00 20.4 8 Nordeste 15 Nordeste 0 -- -- 72
2019-10-13 11:00:00 18.7 3 Norte 12 Noroeste 0 -- -- 78
2019-10-13 10:00:00 16.4 8 Noroeste 11 Noroeste 0 -- -- 86
2019-10-13 09:00:00 14.1 8 Oeste 11 Oeste 0 -- -- 91
2019-10-13 08:00:00 15.4 4 Sudoeste 13 Sur 0 -- -- 88
2019-10-13 07:00:00 16.3 4 Sudeste 19 Sudeste 0 -- -- 88
2019-10-13 06:00:00 16.8 10 Sudeste 23 Sudeste 0 -- -- 86
2019-10-13 05:00:00 17.3 10 Este 28 Sudeste 0 -- -- 83
2019-10-13 04:00:00 18 6 Sudeste 23 Sudeste 0 -- -- 80
2019-10-13 03:00:00 19.3 8 Sudeste 19 Sur 0 -- -- 71
2019-10-13 02:00:00 18.9 3 Noroeste 19 Sudeste 0 -- -- 72
2019-10-13 01:00:00 19.3 0 Calma 28 Sudoeste 0 -- -- 74
2019-10-13 00:00:00 20.1 7 Sur 19 Sudeste 0 -- -- 70
2019-10-12 23:00:00 20.6 14 Sudeste 29 Sudeste 0 -- -- 72
2019-10-12 22:00:00 21.2 10 Sudeste 28 Sur 0 -- -- 68
2019-10-12 21:00:00 22.3 10 Sur 22 Sudeste 0 -- -- 63
2019-10-12 20:00:00 23.5 9 Sudeste 22 Sudeste 0 -- -- 49
2019-10-12 19:00:00 25.3 13 Sur 36 Sudeste 0 -- -- 47
2019-10-12 18:00:00 25.6 18 Sudeste 40 Sudeste 0 -- -- 48
2019-10-12 17:00:00 25.4 21 Sudeste 40 Sudeste 0 -- -- 50
2019-10-12 16:00:00 25.7 14 Este 44 Nordeste 0 -- -- 50
2019-10-12 15:00:00 24 15 Este 28 Este 0 -- -- 58
2019-10-12 14:00:00 23.4 5 Sudeste 19 Sudeste 0 -- -- 62
2019-10-12 13:00:00 22.3 11 Sur 26 Sudeste 0 -- -- 66
2019-10-12 12:00:00 21.3 15 Sur 22 Sur 0 -- -- 71
2019-10-12 11:00:00 19.1 13 Sudeste 31 Sur 0 -- -- 81
2019-10-12 10:00:00 17.7 9 Sur 20 Sur 0 -- -- 86
2019-10-12 09:00:00 17.1 7 Sudoeste 15 Sur 0 -- -- 89
2019-10-12 08:00:00 16.6 0 Calma 6 Este 0 -- -- 90
2019-10-12 07:00:00 17 4 Oeste 9 Sudoeste 0 -- -- 88
2019-10-12 06:00:00 17.7 6 Sur 15 Sur 0 -- -- 86
2019-10-12 05:00:00 17.9 6 Sur 17 Sur 0 -- -- 86
2019-10-12 04:00:00 18.2 8 Sur 16 Sur 0 -- -- 86
2019-10-12 03:00:00 18.5 2 Nordeste 15 Sudoeste 0 -- -- 83
2019-10-12 02:00:00 19.1 8 Sur 21 Sudeste 0 -- -- 81
2019-10-12 01:00:00 19.6 4 Noroeste 10 Oeste 0 -- -- 70
2019-10-12 00:00:00 21.3 3 Este 18 Sudeste 0 -- -- 63
2019-10-11 23:00:00 22.3 7 Este 32 Sur 0 -- -- 59
2019-10-11 22:00:00 23 20 Sur 33 Sur 0 -- -- 57
2019-10-11 21:00:00 21.7 3 Noroeste 9 Nordeste 0 -- -- 59
2019-10-11 20:00:00 22.9 6 Nordeste 20 Sudeste 0 -- -- 55
2019-10-11 19:00:00 23.8 9 Sudeste 22 Sudeste 0 -- -- 53
2019-10-11 18:00:00 24.4 10 Sudeste 21 Sudeste 0 -- -- 53
2019-10-11 17:00:00 25.8 9 Sudeste 19 Sudeste 0 -- -- 50
2019-10-11 16:00:00 25.8 9 Sudeste 17 Este 0 -- -- 49
2019-10-11 15:00:00 24.8 8 Sudeste 17 Sur 0 -- -- 53
2019-10-11 14:00:00 22.2 12 Sur 21 Sudeste 0 -- -- 59
2019-10-11 13:00:00 20.9 10 Sudeste 17 Sudeste 0 -- -- 60
2019-10-11 12:00:00 18.8 9 Sudeste 21 Sudeste 0 -- -- 65
2019-10-11 11:00:00 16.7 10 Sudeste 19 Sur 0 -- -- 67
2019-10-11 10:00:00 14.4 6 Sur 9 Sudoeste 0 -- -- 76
2019-10-11 09:00:00 10.8 6 Oeste 10 Noroeste 0 -- -- 85
2019-10-11 08:00:00 10.3 6 Oeste 12 Oeste 0 -- -- 82
2019-10-11 07:00:00 10.9 4 Sudoeste 9 Sudoeste 0 -- -- 82
2019-10-11 06:00:00 10.5 0 Calma 8 Oeste 0 -- -- 78
2019-10-11 05:00:00 10.6 5 Oeste 12 Oeste 0 -- -- 78
2019-10-11 04:00:00 10.3 3 Oeste 7 Oeste 0 -- -- 78
2019-10-11 03:00:00 11.1 0 Calma 7 Oeste 0 -- -- 75
2019-10-11 02:00:00 11.5 5 Oeste 13 Oeste 0 -- -- 72
2019-10-11 01:00:00 12.2 5 Oeste 11 Oeste 0 -- -- 69
2019-10-11 00:00:00 12.5 9 Oeste 12 Oeste 0 -- -- 68
2019-10-10 23:00:00 12.9 3 Oeste 9 Oeste 0 -- -- 65
2019-10-10 22:00:00 13.9 3 Sudoeste 11 Noroeste 0 -- -- 61
2019-10-10 21:00:00 14.8 7 Oeste 11 Noroeste 0 -- -- 59
2019-10-10 20:00:00 18 0 Calma 6 Sudeste 0 -- -- 51
2019-10-10 19:00:00 19.6 6 Nordeste 12 Nordeste 0 -- -- 47
2019-10-10 18:00:00 20.5 5 Nordeste 14 Nordeste 0 -- -- 42
2019-10-10 17:00:00 21.1 6 Este 18 Nordeste 0 -- -- 41
2019-10-10 16:00:00 20.9 6 Este 17 Nordeste 0 -- -- 41
2019-10-10 15:00:00 20.6 9 Nordeste 17 Este 0 -- -- 41
2019-10-10 14:00:00 19.5 6 Norte 21 Norte 0 -- -- 43
2019-10-10 13:00:00 18.4 10 Norte 19 Norte 0 -- -- 44
2019-10-10 12:00:00 17.7 8 Noroeste 16 Noroeste 0 -- -- 47
2019-10-10 11:00:00 16.4 8 Noroeste 18 Noroeste 0 -- -- 53
2019-10-10 10:00:00 14.1 4 Oeste 14 Oeste 0 -- -- 62
2019-10-10 09:00:00 10.2 8 Oeste 15 Oeste 0 -- -- 76
2019-10-10 08:00:00 9.7 8 Oeste 13 Oeste 0 -- -- 76
2019-10-10 07:00:00 9.8 8 Oeste 14 Oeste 0 -- -- 75
2019-10-10 06:00:00 10.1 8 Oeste 13 Oeste 0 -- -- 74
2019-10-10 05:00:00 10.4 7 Oeste 17 Oeste 0 -- -- 73
2019-10-10 04:00:00 10.1 8 Oeste 15 Oeste 0 -- -- 74
2019-10-10 03:00:00 10.4 8 Oeste 14 Oeste 0 -- -- 73
2019-10-10 02:00:00 10.9 6 Oeste 13 Oeste 0 -- -- 71
2019-10-10 01:00:00 12.7 7 Oeste 19 Noroeste 0 -- -- 66
2019-10-10 00:00:00 14.1 7 Noroeste 19 Noroeste 0 -- -- 62
2019-10-09 23:00:00 14.3 10 Noroeste 24 Noroeste 0 -- -- 64
2019-10-09 22:00:00 14.9 12 Norte 26 Norte 0 -- -- 62
2019-10-09 21:00:00 15.6 16 Norte 37 Norte 0 -- -- 57
2019-10-09 20:00:00 16.7 15 Norte 31 Norte 0 -- -- 55
2019-10-09 19:00:00 17.8 17 Norte 31 Norte 0 -- -- 53
2019-10-09 18:00:00 19.4 14 Norte 32 Norte 0 -- -- 50
2019-10-09 17:00:00 19.6 13 Norte 34 Norte 0 -- -- 51
2019-10-09 16:00:00 19.4 16 Norte 30 Norte 0 -- -- 53
2019-10-09 15:00:00 18.8 15 Norte 31 Norte 0 -- -- 60
2019-10-09 14:00:00 18.3 16 Norte 31 Norte 0 -- -- 62
2019-10-09 13:00:00 17.6 14 Norte 27 Norte 0 -- -- 66
2019-10-09 12:00:00 16.9 12 Norte 25 Norte 0 -- -- 70
2019-10-09 11:00:00 16.1 15 Norte 30 Norte 0 -- -- 75
2019-10-09 10:00:00 15.2 2 Sudeste 6 Oeste 0 -- -- 81
2019-10-09 09:00:00 14.2 4 Oeste 8 Noroeste 0 -- -- 81
2019-10-09 08:00:00 13.1 4 Oeste 11 Oeste 0 -- -- 85
2019-10-09 07:00:00 12.6 5 Oeste 10 Oeste 0 -- -- 86
2019-10-09 06:00:00 13.3 8 Oeste 18 Oeste 0 -- -- 82
2019-10-09 05:00:00 13.4 3 Oeste 12 Oeste 0 -- -- 80
2019-10-09 04:00:00 13.7 9 Oeste 13 Oeste 0 -- -- 78
2019-10-09 03:00:00 13.7 10 Oeste 13 Oeste 0 -- -- 79
2019-10-09 02:00:00 14.4 9 Oeste 12 Oeste 0 -- -- 73
2019-10-09 01:00:00 16.2 5 Oeste 11 Oeste 0 -- -- 69
2019-10-09 00:00:00 17.8 7 Oeste 16 Oeste 0 -- -- 63
2019-10-08 23:00:00 18.8 5 Oeste 12 Oeste 0 -- -- 60
2019-10-08 22:00:00 18.9 6 Oeste 12 Oeste 0 -- -- 50
2019-10-08 21:00:00 19.9 9 Oeste 12 Oeste 0 -- -- 48
2019-10-08 20:00:00 22.8 6 Oeste 10 Nordeste 0 -- -- 44
2019-10-08 19:00:00 25.5 5 Norte 15 Nordeste 0 -- -- 38
2019-10-08 18:00:00 26.5 9 Nordeste 19 Norte 0 -- -- 31
2019-10-08 17:00:00 27.9 12 Este 19 Nordeste 0 -- -- 28
2019-10-08 16:00:00 28 8 Sur 19 Este 0 -- -- 29
2019-10-08 15:00:00 26.1 9 Nordeste 19 Nordeste 0 -- -- 29
2019-10-08 14:00:00 24 8 Nordeste 19 Nordeste 0 -- -- 30
2019-10-08 13:00:00 22.7 9 Nordeste 18 Nordeste 0 -- -- 33
2019-10-08 12:00:00 21.2 7 Nordeste 13 Nordeste 0 -- -- 34
2019-10-08 11:00:00 18.8 5 Nordeste 10 Este 0 -- -- 40
2019-10-08 10:00:00 15.7 2 Nordeste 4 Nordeste 0 -- -- 46
2019-10-08 09:00:00 12.5 0 Calma 9 Noroeste 0 -- -- 54
2019-10-08 08:00:00 12.5 4 Noroeste 9 Noroeste 0 -- -- 47
2019-10-08 07:00:00 12.9 0 Calma 10 Oeste 0 -- -- 50
2019-10-08 06:00:00 13.5 3 Oeste 14 Oeste 0 -- -- 49
2019-10-08 05:00:00 12.6 4 Sudoeste 8 Noroeste 0 -- -- 53
2019-10-08 04:00:00 13.7 3 Sur 14 Sudoeste 0 -- -- 51
2019-10-08 03:00:00 12.8 5 Sudoeste 12 Oeste 0 -- -- 55
2019-10-08 02:00:00 13.8 4 Oeste 10 Sudoeste 0 -- -- 47
2019-10-08 01:00:00 14.2 6 Oeste 10 Noroeste 0 -- -- 45
2019-10-08 00:00:00 15.6 5 Oeste 14 Oeste 0 -- -- 40
2019-10-07 23:00:00 16.2 4 Oeste 14 Oeste 0 -- -- 39
2019-10-07 22:00:00 17.1 5 Oeste 10 Noroeste 0 -- -- 43
2019-10-07 21:00:00 18.6 4 Oeste 12 Noroeste 0 -- -- 40
2019-10-07 20:00:00 20.6 7 Noroeste 27 Norte 0 -- -- 38
2019-10-07 19:00:00 23.5 16 Norte 36 Noroeste 0 -- -- 32
2019-10-07 18:00:00 24.2 17 Norte 43 Norte 0 -- -- 28
2019-10-07 17:00:00 25.3 18 Norte 36 Noroeste 0 -- -- 30
2019-10-07 16:00:00 25.2 19 Norte 36 Norte 0 -- -- 26
2019-10-07 15:00:00 24.1 19 Norte 37 Norte 0 -- -- 27
2019-10-07 14:00:00 22.3 21 Norte 36 Noroeste 0 -- -- 28
2019-10-07 13:00:00 20.6 15 Norte 29 Norte 0 -- -- 38
2019-10-07 12:00:00 19 13 Norte 28 Norte 0 -- -- 48
2019-10-07 11:00:00 17.5 12 Norte 24 Norte 0 -- -- 49
2019-10-07 10:00:00 15 6 Norte 12 Noroeste 0 -- -- 59
2019-10-07 09:00:00 13.1 9 Oeste 22 Oeste 0 -- -- 55
2019-10-07 08:00:00 11.2 4 Noroeste 13 Oeste 0 -- -- 76
2019-10-07 07:00:00 11.3 5 Oeste 12 Oeste 0 -- -- 78
2019-10-07 06:00:00 11.4 10 Noroeste 14 Noroeste 0 -- -- 80
2019-10-07 05:00:00 12 4 Oeste 12 Oeste 0 -- -- 76
2019-10-07 04:00:00 13.3 6 Oeste 13 Oeste 0 -- -- 72
2019-10-07 03:00:00 14.5 5 Noroeste 18 Oeste 0 -- -- 68
2019-10-07 02:00:00 15.1 11 Noroeste 31 Noroeste 0 -- -- 65
2019-10-07 01:00:00 15.8 14 Noroeste 27 Noroeste 0 -- -- 64
2019-10-07 00:00:00 16.1 13 Noroeste 28 Norte 0 -- -- 66
2019-10-06 23:00:00 16.1 13 Noroeste 27 Norte 0 -- -- 70
2019-10-06 22:00:00 16.3 4 Noroeste 15 Norte 0 -- -- 71
2019-10-06 21:00:00 17.1 5 Norte 28 Norte 0 -- -- 69
2019-10-06 20:00:00 18.5 15 Norte 38 Norte 0 -- -- 61
2019-10-06 19:00:00 19.3 14 Norte 38 Norte 0 -- -- 61
2019-10-06 18:00:00 20.8 19 Norte 38 Norte 0 -- -- 55
2019-10-06 17:00:00 21.3 18 Norte 36 Norte 0 -- -- 54
2019-10-06 16:00:00 21.3 17 Norte 34 Noroeste 0 -- -- 55
2019-10-06 15:00:00 21.7 16 Norte 30 Norte 0 -- -- 54
2019-10-06 14:00:00 20.8 15 Norte 25 Norte 0 -- -- 56
2019-10-06 13:00:00 20.8 14 Norte 29 Oeste 0 -- -- 55
2019-10-06 12:00:00 19.9 9 Norte 22 Noroeste 0 -- -- 55
2019-10-06 11:00:00 16.8 8 Noroeste 17 Oeste 0 -- -- 65
2019-10-06 10:00:00 15 8 Oeste 13 Oeste 0 -- -- 75
2019-10-06 09:00:00 11.6 6 Noroeste 12 Oeste 0 -- -- 90
2019-10-06 08:00:00 10.2 4 Oeste 12 Oeste 0 -- -- 91
2019-10-06 07:00:00 10.4 6 Oeste 10 Oeste 0 -- -- 90
2019-10-06 06:00:00 10.9 0 Calma 9 Oeste 0 -- -- 89
2019-10-06 05:00:00 11.2 6 Oeste 10 Oeste 0 -- -- 89
2019-10-06 04:00:00 10.8 6 Oeste 11 Oeste 0 -- -- 87
2019-10-06 03:00:00 11.5 3 Oeste 8 Noroeste 0 -- -- 83
2019-10-06 02:00:00 12.4 8 Oeste 12 Noroeste 0 -- -- 80
2019-10-06 01:00:00 14.4 0 Calma 10 Noroeste 0 -- -- 74
2019-10-06 00:00:00 15.4 5 Noroeste 8 Noroeste 0 -- -- 70
2019-10-05 23:00:00 16.1 5 Noroeste 9 Oeste 0 -- -- 69
2019-10-05 22:00:00 16.5 7 Oeste 11 Oeste 0 -- -- 67
2019-10-05 21:00:00 18.9 5 Oeste 9 Noroeste 0 -- -- 61
2019-10-05 20:00:00 21.7 6 Norte 13 Norte 0 -- -- 52
2019-10-05 19:00:00 23.8 5 Nordeste 18 Norte 0 -- -- 45
2019-10-05 18:00:00 24.8 10 Norte 23 Noroeste 0 -- -- 39
2019-10-05 17:00:00 25.2 11 Norte 21 Norte 0 -- -- 39
2019-10-05 16:00:00 24.5 9 Norte 20 Norte 0 -- -- 44
2019-10-05 15:00:00 23.2 12 Nordeste 18 Nordeste 0 -- -- 49
2019-10-05 14:00:00 22.2 8 Norte 19 Norte 0 -- -- 52
2019-10-05 13:00:00 20.5 10 Norte 21 Nordeste 0 -- -- 57
2019-10-05 12:00:00 19.3 12 Norte 22 Norte 0 -- -- 61
2019-10-05 11:00:00 18.5 13 Norte 19 Noroeste 0 -- -- 64
2019-10-05 10:00:00 16.5 10 Norte 22 Norte 0 -- -- 72
2019-10-05 09:00:00 15 4 Norte 17 Norte 0 -- -- 78
2019-10-05 08:00:00 15 8 Noroeste 13 Noroeste 0 -- -- 81
2019-10-05 07:00:00 15.3 4 Noroeste 10 Norte 0 -- -- 78
2019-10-05 06:00:00 15.7 5 Norte 9 Norte 0 -- -- 77
2019-10-05 05:00:00 16 4 Noroeste 10 Oeste 0 -- -- 77
2019-10-05 04:00:00 16.1 4 Oeste 11 Noroeste 0 -- -- 76
2019-10-05 03:00:00 15.9 8 Noroeste 18 Noroeste 0 -- -- 75
2019-10-05 02:00:00 15.8 9 Noroeste 18 Noroeste 0 -- -- 75
2019-10-05 01:00:00 15.7 7 Norte 19 Norte 0 -- -- 78
2019-10-05 00:00:00 15.5 5 Noroeste 11 Noroeste 0 -- -- 78
2019-10-04 23:00:00 16.5 7 Noroeste 16 Norte 0 -- -- 74
2019-10-04 22:00:00 17.9 8 Noroeste 21 Norte 0 -- -- 68
2019-10-04 21:00:00 18.8 9 Norte 27 Norte 0 -- -- 67
2019-10-04 20:00:00 20.7 12 Norte 22 Norte 0 -- -- 61
2019-10-04 19:00:00 22.9 11 Norte 22 Norte 0 -- -- 54
2019-10-04 18:00:00 24.1 11 Norte 23 Norte 0 -- -- 49
2019-10-04 17:00:00 25 6 Nordeste 17 Norte 0 -- -- 46
2019-10-04 16:00:00 24.4 9 Norte 20 Norte 0 -- -- 47
2019-10-04 15:00:00 23.9 12 Norte 22 Nordeste 0 -- -- 49
2019-10-04 14:00:00 22.8 14 Norte 23 Norte 0 -- -- 54
2019-10-04 13:00:00 21.5 9 Nordeste 19 Nordeste 0 -- -- 59
2019-10-04 12:00:00 21.3 9 Nordeste 17 Norte 0 -- -- 60
2019-10-04 11:00:00 20.3 5 Norte 9 Oeste 0 -- -- 65
2019-10-04 10:00:00 16.9 4 Sur 7 Sudoeste 0 -- -- 66
2019-10-04 09:00:00 12.1 3 Oeste 7 Oeste 0 -- -- 82
2019-10-04 08:00:00 11.7 0 Calma 4 Sur 0 -- -- 77
2019-10-04 07:00:00 12.9 0 Calma 5 Sudoeste 0 -- -- 73
2019-10-04 06:00:00 14.6 0 Calma 18 Oeste 0 -- -- 67
2019-10-04 05:00:00 15.5 10 Oeste 17 Oeste 0 -- -- 63
2019-10-04 04:00:00 15.4 8 Oeste 19 Oeste 0 -- -- 61
2019-10-04 03:00:00 15 8 Oeste 20 Oeste 0 -- -- 62
2019-10-04 02:00:00 13.5 9 Oeste 16 Oeste 0 -- -- 65
2019-10-04 01:00:00 13.6 5 Sudoeste 14 Oeste 0 -- -- 64
2019-10-04 00:00:00 13.6 9 Oeste 12 Oeste 0 -- -- 63
2019-10-03 23:00:00 15.1 4 Sudoeste 10 Oeste 0 -- -- 57
2019-10-03 22:00:00 16.3 4 Oeste 15 Noroeste 0 -- -- 54
2019-10-03 21:00:00 18.4 5 Oeste 21 Norte 0 -- -- 49
2019-10-03 20:00:00 20.8 11 Norte 30 Norte 0 -- -- 42
2019-10-03 19:00:00 23 11 Norte 37 Norte 0 -- -- 39
2019-10-03 18:00:00 24.4 16 Norte 37 Norte 0 -- -- 33
2019-10-03 17:00:00 25 17 Norte 33 Norte 0 -- -- 34
2019-10-03 16:00:00 24.6 12 Norte 30 Norte 0 -- -- 37
2019-10-03 15:00:00 23 10 Norte 19 Norte 0 -- -- 42
2019-10-03 14:00:00 20.9 7 Nordeste 17 Este 0 -- -- 48
2019-10-03 13:00:00 18.9 7 Norte 16 Este 0 -- -- 53
2019-10-03 12:00:00 17.4 9 Nordeste 23 Norte 0 -- -- 57
2019-10-03 11:00:00 16.5 11 Norte 21 Noroeste 0 -- -- 58
2019-10-03 10:00:00 12 4 Oeste 10 Oeste 0 -- -- 75
2019-10-03 09:00:00 10.5 3 Oeste 13 Oeste 0 -- -- 82
2019-10-03 08:00:00 10.2 10 Oeste 15 Oeste 0 -- -- 80
2019-10-03 07:00:00 11.4 8 Oeste 17 Oeste 0 -- -- 76
2019-10-03 06:00:00 12.2 11 Oeste 20 Oeste 0 -- -- 74
2019-10-03 05:00:00 12.1 7 Oeste 16 Oeste 0 -- -- 76
2019-10-03 04:00:00 12.8 8 Oeste 22 Oeste 0 -- -- 75
2019-10-03 03:00:00 13.3 14 Oeste 24 Oeste 0 -- -- 75
2019-10-03 02:00:00 13.8 14 Oeste 27 Noroeste 0 -- -- 75
2019-10-03 01:00:00 14.7 16 Noroeste 28 Noroeste 0 -- -- 71
2019-10-03 00:00:00 14.5 11 Noroeste 29 Norte 0 -- -- 74
2019-10-02 23:00:00 14.8 16 Noroeste 24 Noroeste 0 -- -- 73
2019-10-02 22:00:00 15.2 10 Noroeste 33 Noroeste 0 -- -- 71
2019-10-02 21:00:00 16.3 13 Noroeste 30 Noroeste 0 -- -- 67
2019-10-02 20:00:00 17.5 16 Norte 35 Norte 0 -- -- 60
2019-10-02 19:00:00 19 19 Norte 40 Norte 0 -- -- 53
2019-10-02 18:00:00 19.9 21 Norte 42 Norte 0 -- -- 49
2019-10-02 17:00:00 21 22 Norte 45 Norte 0 -- -- 46
2019-10-02 16:00:00 21 26 Noroeste 46 Norte 0 -- -- 46
2019-10-02 15:00:00 20.7 22 Norte 46 Norte 0 -- -- 49
2019-10-02 14:00:00 20.8 27 Norte 50 Norte 0 -- -- 48
2019-10-02 13:00:00 20.4 25 Norte 49 Noroeste 0 -- -- 49
2019-10-02 12:00:00 19.8 22 Norte 45 Noroeste 0 -- -- 49
2019-10-02 11:00:00 19.5 14 Norte 33 Noroeste 0 -- -- 50
2019-10-02 10:00:00 17.6 11 Noroeste 22 Noroeste 0 -- -- 54
2019-10-02 09:00:00 15.1 2 Sur 18 Norte 0 -- -- 61
2019-10-02 08:00:00 14.6 6 Oeste 30 Oeste 0 -- -- 63
2019-10-02 07:00:00 14.6 11 Noroeste 22 Noroeste 0 -- -- 68
2019-10-02 06:00:00 15.2 10 Oeste 18 Oeste 0 -- -- 73
2019-10-02 05:00:00 16 3 Noroeste 19 Norte 0 -- -- 72
2019-10-02 04:00:00 16.6 12 Noroeste 23 Noroeste 0 -- -- 71
2019-10-02 03:00:00 16.7 10 Noroeste 18 Noroeste 0 -- -- 73
2019-10-02 02:00:00 16.8 10 Noroeste 19 Noroeste 0 -- -- 73
2019-10-02 01:00:00 17.3 8 Norte 21 Norte 0 -- -- 72
2019-10-02 00:00:00 17.4 0 Calma 14 Norte 0 -- -- 72
2019-10-01 23:00:00 17.4 5 Noroeste 13 Nordeste 0 -- -- 72
2019-10-01 22:00:00 18.2 2 Noroeste 25 Norte 0 -- -- 69
2019-10-01 21:00:00 19.7 13 Norte 32 Norte 0 -- -- 63
2019-10-01 20:00:00 22 14 Norte 24 Norte 0 -- -- 56
2019-10-01 19:00:00 24 11 Norte 22 Norte 0 -- -- 50
2019-10-01 18:00:00 24.4 7 Nordeste 25 Nordeste 0 -- -- 49
2019-10-01 17:00:00 25.8 12 Norte 30 Norte 0 -- -- 45
2019-10-01 16:00:00 26.4 15 Norte 29 Nordeste 0 -- -- 41
2019-10-01 15:00:00 24.6 10 Norte 23 Nordeste 0 -- -- 48
2019-10-01 14:00:00 24.3 13 Norte 28 Noroeste 0 -- -- 49
2019-10-01 13:00:00 23.5 8 Nordeste 22 Norte 0 -- -- 50
2019-10-01 12:00:00 21.9 7 Nordeste 15 Nordeste 0 -- -- 57
2019-10-01 11:00:00 19.4 5 Este 10 Este 0 -- -- 65
2019-10-01 10:00:00 16.9 3 Sudeste 5 Sur 0 -- -- 71
2019-10-01 09:00:00 13.5 0 Calma 10 Oeste 0 -- -- 77
2019-10-01 08:00:00 12.8 0 Calma 9 Oeste 0 -- -- 73
2019-10-01 07:00:00 13.6 2 Oeste 12 Oeste 0 -- -- 69
2019-10-01 06:00:00 14.2 5 Sudoeste 9 Noroeste 0 -- -- 66
2019-10-01 05:00:00 14.2 5 Oeste 9 Oeste 0 -- -- 64
2019-10-01 04:00:00 15.1 2 Oeste 6 Oeste 0 -- -- 58
2019-10-01 03:00:00 15.9 0 Calma 9 Oeste 0 -- -- 59
2019-10-01 02:00:00 16.9 2 Sur 8 Oeste 0 -- -- 56
2019-10-01 01:00:00 17.9 4 Oeste 10 Oeste 0 -- -- 55
2019-10-01 00:00:00 18.7 2 Oeste 10 Oeste 0 -- -- 57
2019-09-30 23:00:00 19.1 2 Oeste 9 Sudoeste 0 -- -- 61
2019-09-30 22:00:00 18.9 4 Sudoeste 11 Oeste 0 -- -- 63
2019-09-30 21:00:00 19.9 6 Sudoeste 14 Oeste 0 -- -- 61
2019-09-30 20:00:00 23.8 3 Oeste 6 Nordeste 0 -- -- 54
2019-09-30 19:00:00 26.3 4 Nordeste 12 Nordeste 0 -- -- 43
2019-09-30 18:00:00 27 8 Nordeste 15 Nordeste 0 -- -- 41
2019-09-30 17:00:00 27.1 7 Nordeste 17 Nordeste 0 -- -- 41
2019-09-30 16:00:00 26.7 6 Nordeste 15 Nordeste 0 -- -- 43
2019-09-30 15:00:00 25.8 7 Nordeste 13 Nordeste 0 -- -- 45
2019-09-30 14:00:00 24.4 6 Este 14 Nordeste 0 -- -- 49
2019-09-30 13:00:00 23.1 5 Nordeste 13 Nordeste 0 -- -- 49
2019-09-30 12:00:00 22.3 5 Este 13 Este 0 -- -- 48
2019-09-30 11:00:00 20.9 6 Este 12 Nordeste 0 -- -- 52
2019-09-30 10:00:00 18.1 0 Calma 5 Oeste 0 -- -- 65
2019-09-30 09:00:00 13.7 0 Calma 5 Sudoeste 0 -- -- 69
2019-09-30 08:00:00 12.6 3 Sudoeste 8 Oeste 0 -- -- 74
2019-09-30 07:00:00 12.8 6 Oeste 13 Oeste 0 -- -- 71
2019-09-30 06:00:00 12.9 3 Sudoeste 11 Oeste 0 -- -- 69
2019-09-30 05:00:00 12.8 4 Oeste 10 Oeste 0 -- -- 68
2019-09-30 04:00:00 13.8 4 Oeste 10 Noroeste 0 -- -- 65
2019-09-30 03:00:00 14.6 0 Calma 15 Oeste 0 -- -- 64
2019-09-30 02:00:00 15 3 Oeste 12 Noroeste 0 -- -- 65
2019-09-30 01:00:00 17.1 5 Sur 9 Noroeste 0 -- -- 52
2019-09-30 00:00:00 18.5 3 Noroeste 11 Noroeste 0 -- -- 48
2019-09-29 23:00:00 19.7 9 Oeste 14 Sudoeste 0 -- -- 43
2019-09-29 22:00:00 18.5 5 Oeste 14 Oeste 0 -- -- 55
2019-09-29 21:00:00 19.8 4 Oeste 13 Oeste 0 -- -- 63
2019-09-29 20:00:00 23.5 5 Oeste 10 Oeste 0 -- -- 55
2019-09-29 19:00:00 26.5 0 Calma 7 Este 0 -- -- 45
2019-09-29 18:00:00 27.1 4 Norte 9 Este 0 -- -- 43
2019-09-29 17:00:00 27 6 Nordeste 18 Nordeste 0 -- -- 44
2019-09-29 16:00:00 26.1 7 Nordeste 19 Nordeste 0 -- -- 45
2019-09-29 15:00:00 25.6 9 Nordeste 21 Nordeste 0 -- -- 49
2019-09-29 14:00:00 24.8 9 Nordeste 16 Nordeste 0 -- -- 51
2019-09-29 13:00:00 23.7 7 Este 13 Nordeste 0 -- -- 55
2019-09-29 12:00:00 21.4 6 Nordeste 12 Nordeste 0 -- -- 69
2019-09-29 11:00:00 19.8 5 Nordeste 12 Norte 0 -- -- 63
2019-09-29 10:00:00 16.7 0 Calma 7 Noroeste 0 -- -- 69
2019-09-29 09:00:00 12.3 3 Oeste 9 Oeste 0 -- -- 78
2019-09-29 08:00:00 11.6 5 Oeste 10 Oeste 0 -- -- 79
2019-09-29 07:00:00 11.7 4 Oeste 11 Oeste 0 -- -- 76
2019-09-29 06:00:00 12.8 2 Oeste 11 Oeste 0 -- -- 76
2019-09-29 05:00:00 13.1 4 Sudoeste 9 Oeste 0 -- -- 74
2019-09-29 04:00:00 13.6 4 Oeste 8 Oeste 0 -- -- 70
2019-09-29 03:00:00 14.4 3 Oeste 7 Oeste 0 -- -- 69
2019-09-29 02:00:00 15.3 2 Oeste 5 Noroeste 0 -- -- 66
2019-09-29 01:00:00 16 6 Oeste 10 Oeste 0 -- -- 68
2019-09-29 00:00:00 17.2 5 Oeste 13 Sudoeste 0 -- -- 65
2019-09-28 23:00:00 17.7 5 Oeste 12 Oeste 0 -- -- 66
2019-09-28 22:00:00 18.5 8 Oeste 19 Oeste 0 -- -- 64
2019-09-28 21:00:00 20.7 2 Oeste 8 Este 0 -- -- 59
2019-09-28 20:00:00 23.8 2 Sudeste 17 Sudeste 0 -- -- 50
2019-09-28 19:00:00 25.1 7 Sudeste 20 Sudeste 0 -- -- 45
2019-09-28 18:00:00 25.7 11 Sudeste 17 Este 0 -- -- 41
2019-09-28 17:00:00 26 9 Este 21 Este 0 -- -- 45
2019-09-28 16:00:00 24.8 11 Nordeste 22 Este 0 -- -- 49
2019-09-28 15:00:00 24.1 11 Este 21 Este 0 -- -- 52
2019-09-28 14:00:00 23.3 8 Este 18 Este 0 -- -- 54
2019-09-28 13:00:00 21.5 6 Nordeste 15 Este 0 -- -- 58
2019-09-28 12:00:00 20.7 4 Este 11 Este 0 -- -- 61
2019-09-28 11:00:00 19.1 5 Este 9 Este 0 -- -- 68
2019-09-28 10:00:00 17 4 Oeste 14 Oeste 0 -- -- 76
2019-09-28 09:00:00 14.1 6 Oeste 13 Oeste 0 -- -- 86
2019-09-28 08:00:00 13 8 Oeste 10 Oeste 0 -- -- 87
2019-09-28 07:00:00 13.7 6 Oeste 16 Oeste 0 -- -- 86
2019-09-28 06:00:00 13.3 7 Oeste 13 Oeste 0 -- -- 85
2019-09-28 05:00:00 13.5 6 Oeste 12 Sudoeste 0 -- -- 85
2019-09-28 04:00:00 13.1 9 Oeste 13 Oeste 0 -- -- 86
2019-09-28 03:00:00 13.6 8 Oeste 12 Oeste 0 -- -- 85
2019-09-28 02:00:00 15.5 6 Oeste 10 Noroeste 0 -- -- 79
2019-09-28 01:00:00 17.1 4 Oeste 20 Noroeste 0 -- -- 76
2019-09-28 00:00:00 17.9 8 Noroeste 13 Noroeste 0 -- -- 71
2019-09-27 23:00:00 18.8 5 Noroeste 14 Noroeste 0 -- -- 66
2019-09-27 22:00:00 18.6 10 Noroeste 15 Noroeste 0 -- -- 48
2019-09-27 21:00:00 18.7 8 Oeste 12 Oeste 0 -- -- 50
2019-09-27 20:00:00 22.4 4 Oeste 6 Oeste 0 -- -- 44
2019-09-27 19:00:00 25.5 3 Norte 12 Nordeste 0 -- -- 34
2019-09-27 18:00:00 26 5 Norte 16 Norte 0 -- -- 33
2019-09-27 17:00:00 26.2 9 Este 17 Norte 0 -- -- 36
2019-09-27 16:00:00 25.9 9 Norte 18 Norte 0 -- -- 36
2019-09-27 15:00:00 25.3 10 Nordeste 21 Nordeste 0 -- -- 38
2019-09-27 14:00:00 24.4 6 Nordeste 17 Norte 0 -- -- 41
2019-09-27 13:00:00 22.8 8 Norte 21 Nordeste 0 -- -- 46
2019-09-27 12:00:00 21.7 7 Nordeste 18 Nordeste 0 -- -- 48
2019-09-27 11:00:00 21.3 6 Este 12 Nordeste 0 -- -- 51
2019-09-27 10:00:00 17.6 4 Sur 8 Oeste 0 -- -- 60
2019-09-27 09:00:00 12.7 0 Calma 8 Sudoeste 0 -- -- 75
2019-09-27 08:00:00 11.8 4 Sur 8 Oeste 0 -- -- 74
2019-09-27 07:00:00 13.1 2 Oeste 8 Sudoeste 0 -- -- 68
2019-09-27 06:00:00 13.6 2 Sudoeste 8 Sudoeste 0 -- -- 67
2019-09-27 05:00:00 14.2 3 Sudoeste 8 Nordeste 0 -- -- 70
2019-09-27 04:00:00 15.4 4 Noroeste 8 Noroeste 0 -- -- 65
2019-09-27 03:00:00 17.2 0 Calma 14 Oeste 0 -- -- 60
2019-09-27 02:00:00 18 4 Oeste 15 Sudoeste 0 -- -- 59
2019-09-27 01:00:00 18.2 4 Oeste 14 Oeste 0 -- -- 61
2019-09-27 00:00:00 18.8 6 Oeste 14 Oeste 0 -- -- 60
2019-09-26 23:00:00 18.7 6 Oeste 13 Oeste 0 -- -- 61
2019-09-26 22:00:00 19.1 6 Oeste 9 Oeste 0 -- -- 61
2019-09-26 21:00:00 20.5 0 Calma 12 Oeste 0 -- -- 57
2019-09-26 20:00:00 24 5 Oeste 9 Nordeste 0 -- -- 49
2019-09-26 19:00:00 25.9 6 Norte 24 Nordeste 0 -- -- 42
2019-09-26 18:00:00 26.3 13 Nordeste 24 Nordeste 0 -- -- 41
2019-09-26 17:00:00 27.7 14 Este 25 Este 0 -- -- 39
2019-09-26 16:00:00 27.5 8 Sudeste 30 Este 0 -- -- 38
2019-09-26 15:00:00 26.4 12 Este 26 Este 0 -- -- 40
2019-09-26 14:00:00 24.7 8 Este 17 Este 0 -- -- 45
2019-09-26 13:00:00 21.8 10 Nordeste 18 Nordeste 0 -- -- 55
2019-09-26 12:00:00 21.1 5 Nordeste 12 Nordeste 0 -- -- 57
2019-09-26 11:00:00 19 5 Nordeste 9 Nordeste 0 -- -- 61
2019-09-26 10:00:00 16.7 2 Sudeste 4 Sudeste 0 -- -- 67
2019-09-26 09:00:00 12.7 0 Calma 9 Oeste 0 -- -- 82
2019-09-26 08:00:00 11.4 3 Oeste 7 Oeste 0 -- -- 83
2019-09-26 07:00:00 12 3 Oeste 9 Oeste 0 -- -- 81
2019-09-26 06:00:00 12.4 8 Oeste 10 Oeste 0 -- -- 80
2019-09-26 05:00:00 12.8 0 Calma 7 Oeste 0 -- -- 79
2019-09-26 04:00:00 13.3 3 Oeste 9 Oeste 0 -- -- 77
2019-09-26 03:00:00 13.5 3 Oeste 7 Oeste 0 -- -- 76
2019-09-26 02:00:00 14.1 0 Calma 6 Sur 0 -- -- 73
2019-09-26 01:00:00 14.9 0 Calma 8 Oeste 0 -- -- 69
2019-09-26 00:00:00 14.8 3 Oeste 9 Oeste 0 -- -- 71
2019-09-25 23:00:00 15.5 3 Oeste 10 Oeste 0 -- -- 68
2019-09-25 22:00:00 16.2 6 Oeste 11 Noroeste 0 -- -- 65
2019-09-25 21:00:00 17.6 7 Oeste 9 Noroeste 0 -- -- 60
2019-09-25 20:00:00 20.3 6 Noroeste 18 Norte 0 -- -- 50
2019-09-25 19:00:00 21.4 10 Norte 27 Norte 0 -- -- 46
2019-09-25 18:00:00 21.9 15 Norte 25 Norte 0 -- -- 43
2019-09-25 17:00:00 22.9 12 Norte 26 Norte 0 -- -- 42
2019-09-25 16:00:00 22.8 8 Nordeste 24 Norte 0 -- -- 43
2019-09-25 15:00:00 21.9 9 Norte 24 Nordeste 0 -- -- 46
2019-09-25 14:00:00 20.7 12 Norte 22 Norte 0 -- -- 51
2019-09-25 13:00:00 19.9 12 Norte 24 Nordeste 0 -- -- 57
2019-09-25 12:00:00 18.5 9 Norte 21 Norte 0 -- -- 61
2019-09-25 11:00:00 17.5 5 Nordeste 14 Norte 0 -- -- 67
2019-09-25 10:00:00 17 3 Norte 8 Noroeste 0 -- -- 70
2019-09-25 09:00:00 15.7 5 Oeste 8 Oeste 0 -- -- 78
2019-09-25 08:00:00 15 0 Calma 5 Noroeste 0 -- -- 80
2019-09-25 07:00:00 15.2 0 Calma 5 Nordeste 0 -- -- 80
2019-09-25 06:00:00 15.2 0 Calma 8 Nordeste 0 -- -- 79
2019-09-25 05:00:00 15.4 5 Nordeste 12 Norte 0 -- -- 79
2019-09-25 04:00:00 15.6 5 Norte 12 Norte 0 -- -- 78
2019-09-25 03:00:00 16 5 Norte 15 Norte 0 -- -- 76
2019-09-25 02:00:00 16.8 8 Norte 24 Norte 0 -- -- 72
2019-09-25 01:00:00 17.5 10 Norte 19 Norte 0 -- -- 71
2019-09-25 00:00:00 19 9 Norte 19 Norte 0 -- -- 70
2019-09-24 23:00:00 20.2 8 Oeste 18 Sudoeste 0 -- -- 69
2019-09-24 22:00:00 20.6 6 Oeste 15 Sudoeste 0 -- -- 66
2019-09-24 21:00:00 22 3 Oeste 17 Oeste 0 -- -- 60
2019-09-24 20:00:00 23.7 9 Oeste 33 Sudoeste 0 -- -- 54
2019-09-24 19:00:00 24.6 13 Noroeste 35 Oeste 0 -- -- 51
2019-09-24 18:00:00 26.2 17 Oeste 37 Oeste 0 -- -- 46
2019-09-24 17:00:00 26.9 21 Noroeste 43 Oeste 0 -- -- 44
2019-09-24 16:00:00 27.7 18 Oeste 45 Oeste 0 -- -- 43
2019-09-24 15:00:00 27.1 18 Oeste 46 Oeste 0 -- -- 44
2019-09-24 14:00:00 27.2 20 Oeste 41 Oeste 0 -- -- 41
2019-09-24 13:00:00 26.7 15 Oeste 36 Sudoeste 0 -- -- 39
2019-09-24 12:00:00 24.9 17 Oeste 45 Sudoeste 0 -- -- 42
2019-09-24 11:00:00 23.3 19 Oeste 41 Oeste 0 -- -- 45
2019-09-24 10:00:00 21.3 13 Oeste 31 Oeste 0 -- -- 51
2019-09-24 09:00:00 19.9 19 Oeste 34 Oeste 0 -- -- 53
2019-09-24 08:00:00 19.6 15 Oeste 35 Oeste 0 -- -- 53
2019-09-24 07:00:00 19.6 13 Oeste 36 Oeste 0 -- -- 51
2019-09-24 06:00:00 18.5 12 Oeste 26 Sudoeste 0 -- -- 53
2019-09-24 05:00:00 16.5 4 Sur 15 Sudoeste 0 -- -- 60
2019-09-24 04:00:00 15.8 4 Este 12 Sudoeste 0 -- -- 65
2019-09-24 03:00:00 15.8 5 Sudoeste 18 Sudoeste 0 -- -- 65
2019-09-24 02:00:00 14.7 4 Sudoeste 12 Oeste 0 -- -- 71
2019-09-24 01:00:00 14.5 6 Oeste 12 Oeste 0 -- -- 73
2019-09-24 00:00:00 14.8 4 Oeste 10 Oeste 0 -- -- 71
2019-09-23 23:00:00 16 0 Calma 10 Oeste 0 -- -- 67
2019-09-23 22:00:00 17.5 9 Oeste 12 Oeste 0 -- -- 61
2019-09-23 21:00:00 19 3 Sudoeste 13 Oeste 0 -- -- 59
2019-09-23 20:00:00 21.8 6 Sur 12 Sudeste 0 -- -- 47
2019-09-23 19:00:00 23.4 2 Sur 23 Sur 0 -- -- 43
2019-09-23 18:00:00 24.6 10 Oeste 29 Oeste 0 -- -- 35
2019-09-23 17:00:00 24.7 11 Oeste 28 Oeste 0 -- -- 34
2019-09-23 16:00:00 23.5 10 Este 16 Este 0 -- -- 47
2019-09-23 15:00:00 23.3 7 Sudeste 30 Oeste 0 -- -- 44
2019-09-23 14:00:00 22.7 13 Noroeste 28 Oeste 0 -- -- 41
2019-09-23 13:00:00 21.3 7 Nordeste 23 Norte 0 -- -- 54
2019-09-23 12:00:00 19.5 10 Nordeste 16 Nordeste 0 -- -- 60
2019-09-23 11:00:00 18.5 6 Este 13 Nordeste 0 -- -- 63
2019-09-23 10:00:00 15.4 5 Este 9 Este 0 -- -- 73
2019-09-23 09:00:00 11.2 2 Sudoeste 6 Oeste 0 -- -- 85
2019-09-23 08:00:00 10.8 4 Oeste 8 Oeste 0 -- -- 84
2019-09-23 07:00:00 11 0 Calma 6 Oeste 0 -- -- 83
2019-09-23 06:00:00 11.4 3 Sudoeste 10 Oeste 0 -- -- 81
2019-09-23 05:00:00 12.2 3 Sudoeste 7 Sur 0 -- -- 79
2019-09-23 04:00:00 13.5 0 Calma 6 Sudoeste 0 -- -- 74
2019-09-23 03:00:00 14.3 3 Oeste 15 Oeste 0 -- -- 72
2019-09-23 02:00:00 14.4 8 Oeste 15 Oeste 0 -- -- 71
2019-09-23 01:00:00 14.7 6 Oeste 13 Oeste 0 -- -- 76
2019-09-23 00:00:00 16.2 4 Norte 10 Norte 0 -- -- 68
2019-09-22 23:00:00 16.1 8 Oeste 14 Noroeste 0 -- -- 66
2019-09-22 22:00:00 16.8 5 Oeste 12 Oeste 0 -- -- 67
2019-09-22 21:00:00 17.3 4 Oeste 8 Oeste 0 -- -- 68
2019-09-22 20:00:00 20 4 Norte 17 Norte 0 -- -- 53
2019-09-22 19:00:00 21.1 6 Nordeste 13 Nordeste 0 -- -- 50
2019-09-22 18:00:00 21.4 6 Nordeste 22 Norte 0 -- -- 52
2019-09-22 17:00:00 21.7 12 Norte 23 Nordeste 0 -- -- 54
2019-09-22 16:00:00 23.5 12 Norte 30 Noroeste 0 -- -- 52
2019-09-22 15:00:00 22.4 14 Oeste 27 Oeste 0 -- -- 49
2019-09-22 14:00:00 20.5 6 Nordeste 29 Oeste 0 -- -- 64
2019-09-22 13:00:00 21.5 16 Noroeste 34 Noroeste 0 -- -- 52
2019-09-22 12:00:00 20.4 12 Oeste 31 Oeste 0 -- -- 58
2019-09-22 11:00:00 20.2 9 Oeste 25 Noroeste 0 -- -- 58
2019-09-22 10:00:00 19.5 5 Norte 31 Oeste 0 -- -- 73
2019-09-22 09:00:00 19.8 12 Noroeste 25 Oeste 0 -- -- 69
2019-09-22 08:00:00 19.5 8 Sur 20 Este 0 -- -- 71
2019-09-22 07:00:00 18.3 4 Sudeste 14 Nordeste 0 -- -- 88
2019-09-22 06:00:00 18.5 5 Este 19 Noroeste 0 -- -- 87
2019-09-22 05:00:00 18.3 4 Nordeste 14 Nordeste 0 -- -- 89
2019-09-22 04:00:00 18.4 8 Este 16 Nordeste 0 -- -- 86
2019-09-22 03:00:00 18.8 5 Noroeste 10 Nordeste 0 -- -- 83
2019-09-22 02:00:00 19.8 3 Norte 13 Nordeste 0.4 -- -- 79
2019-09-22 01:00:00 21.5 4 Sudoeste 16 Sudeste 0 -- -- 66
2019-09-22 00:00:00 21.6 8 Oeste 17 Oeste 0 -- -- 63
2019-09-21 23:00:00 21.8 3 Sur 13 Sudoeste 0 -- -- 61
2019-09-21 22:00:00 21.4 4 Sur 10 Oeste 0 -- -- 63
2019-09-21 21:00:00 21.5 3 Norte 10 Noroeste 0 -- -- 65
2019-09-21 20:00:00 22.8 5 Sudoeste 23 Oeste 0 -- -- 55
2019-09-21 19:00:00 23.7 5 Noroeste 9 Oeste 0 -- -- 53
2019-09-21 18:00:00 24.9 6 Oeste 26 Sudoeste 0 -- -- 49
2019-09-21 17:00:00 26.1 14 Sudoeste 33 Sudoeste 0 -- -- 44
2019-09-21 16:00:00 26.8 13 Sudoeste 33 Sudoeste 0 -- -- 41
2019-09-21 15:00:00 24.9 11 Oeste 27 Oeste 0 -- -- 45
2019-09-21 14:00:00 24 9 Sudeste 22 Nordeste 0 -- -- 58
2019-09-21 13:00:00 23.1 9 Este 17 Este 0 -- -- 65
2019-09-21 12:00:00 21.3 5 Sudeste 13 Nordeste 0 -- -- 73
2019-09-21 11:00:00 19.7 4 Nordeste 8 Norte 0 -- -- 82
2019-09-21 10:00:00 18.4 3 Este 8 Este 0 -- -- 86
2019-09-21 09:00:00 17.3 3 Sur 7 Este 0 -- -- 88
2019-09-21 08:00:00 17.1 5 Sudeste 15 Sudeste 0 -- -- 87
2019-09-21 07:00:00 17.4 4 Sudeste 11 Sur 0 -- -- 87
2019-09-21 06:00:00 17.2 2 Norte 9 Nordeste 0 -- -- 89
2019-09-21 05:00:00 17.4 3 Nordeste 8 Nordeste 0 -- -- 89
2019-09-21 04:00:00 17.6 4 Sudoeste 13 Sudoeste 0 -- -- 87
2019-09-21 03:00:00 17.6 3 Sur 10 Sudoeste 0 -- -- 86
2019-09-21 02:00:00 17.2 4 Nordeste 9 Sudeste 0 -- -- 90
2019-09-21 01:00:00 18 6 Sudeste 16 Sudeste 0 -- -- 87
2019-09-21 00:00:00 18 4 Oeste 21 Sudeste 0 -- -- 86
2019-09-20 23:00:00 17.8 14 Sudeste 27 Sudeste 0.8 -- -- 84
2019-09-20 22:00:00 18.3 5 Sur 12 Sur 0.2 -- -- 81
2019-09-20 21:00:00 17.9 4 Nordeste 36 Sudeste 0.2 -- -- 79
2019-09-20 20:00:00 19.1 15 Este 59 Sudeste 1.6 -- -- 69
2019-09-20 19:00:00 21.1 20 Sur 35 Sudeste 0.4 -- -- 72
2019-09-20 18:00:00 25.3 19 Sudeste 39 Sudeste 0 -- -- 56
2019-09-20 17:00:00 26 21 Este 43 Este 0 -- -- 54
2019-09-20 16:00:00 26 13 Sudeste 33 Sudeste 0 -- -- 50
2019-09-20 15:00:00 25.9 15 Sudeste 32 Sudeste 0 -- -- 53
2019-09-20 14:00:00 24.8 14 Sudeste 28 Sudeste 0 -- -- 56
2019-09-20 13:00:00 23 12 Este 27 Este 0 -- -- 66
2019-09-20 12:00:00 22.4 16 Este 26 Este 0 -- -- 67
2019-09-20 11:00:00 20.2 3 Este 9 Sur 0 -- -- 78
2019-09-20 10:00:00 18.2 2 Este 12 Sudoeste 0 -- -- 83
2019-09-20 09:00:00 16.5 5 Sudoeste 12 Sudoeste 0 -- -- 89
2019-09-20 08:00:00 14.7 3 Oeste 8 Oeste 0 -- -- 91
2019-09-20 07:00:00 15.5 3 Noroeste 12 Sudoeste 0 -- -- 88
2019-09-20 06:00:00 16.4 5 Oeste 9 Oeste 0 -- -- 85
2019-09-20 05:00:00 16.7 4 Sudoeste 10 Sudoeste 0 -- -- 84
2019-09-20 04:00:00 18.1 6 Sur 12 Sur 0 -- -- 79
2019-09-20 03:00:00 17.4 6 Sur 13 Sur 0 -- -- 83
2019-09-20 02:00:00 17.4 4 Sudoeste 7 Este 0 -- -- 83
2019-09-20 01:00:00 17.8 3 Oeste 9 Oeste 0 -- -- 82
2019-09-20 00:00:00 18.1 3 Oeste 7 Oeste 0 -- -- 83
2019-09-19 23:00:00 19.3 2 Oeste 5 Oeste 0 -- -- 79
2019-09-19 22:00:00 21.3 0 Calma 12 Oeste 0 -- -- 72
2019-09-19 21:00:00 21.9 8 Noroeste 10 Oeste 0 -- -- 70
2019-09-19 20:00:00 24.5 0 Calma 8 Nordeste 0 -- -- 61
2019-09-19 19:00:00 25.6 4 Este 8 Este 0 -- -- 55
2019-09-19 18:00:00 25.5 2 Nordeste 9 Norte 0 -- -- 53
2019-09-19 17:00:00 25.3 4 Norte 12 Sudeste 0 -- -- 54
2019-09-19 16:00:00 24.7 6 Nordeste 13 Este 0 -- -- 56
2019-09-19 15:00:00 23.9 5 Nordeste 16 Nordeste 0 -- -- 60
2019-09-19 14:00:00 23.4 4 Sudeste 13 Este 0 -- -- 62
2019-09-19 13:00:00 21.8 7 Este 16 Nordeste 0 -- -- 68
2019-09-19 12:00:00 20.6 5 Este 13 Este 0 -- -- 72
2019-09-19 11:00:00 19 4 Sudeste 8 Sudeste 0 -- -- 79
2019-09-19 10:00:00 16.8 0 Calma 5 Noroeste 0 -- -- 91
2019-09-19 09:00:00 15.6 0 Calma 12 Noroeste 0 -- -- 92
2019-09-19 08:00:00 14.5 4 Oeste 7 Sudoeste 0 -- -- 94
2019-09-19 07:00:00 13.9 4 Oeste 7 Noroeste 0 -- -- 93
2019-09-19 06:00:00 14.2 4 Oeste 8 Oeste 0 -- -- 92
2019-09-19 05:00:00 14.4 2 Oeste 8 Noroeste 0 -- -- 91
2019-09-19 04:00:00 14.7 2 Sudoeste 8 Oeste 0 -- -- 91
2019-09-19 03:00:00 15.2 5 Oeste 9 Oeste 0 -- -- 89
2019-09-19 02:00:00 15.6 3 Oeste 12 Oeste 0 -- -- 88
2019-09-19 01:00:00 16.3 6 Oeste 9 Noroeste 0 -- -- 86
2019-09-19 00:00:00 16.9 2 Oeste 7 Oeste 0 -- -- 83
2019-09-18 23:00:00 17.3 5 Oeste 13 Oeste 0 -- -- 85
2019-09-18 22:00:00 18.1 5 Sudoeste 12 Norte 0 -- -- 86
2019-09-18 21:00:00 18.7 5 Oeste 10 Oeste 0 -- -- 83
2019-09-18 20:00:00 20.7 0 Calma 8 Oeste 0 -- -- 81
2019-09-18 19:00:00 20.6 5 Sudoeste 10 Nordeste 0 -- -- 82
2019-09-18 18:00:00 19.9 8 Oeste 39 Noroeste 2.2 -- -- 76
2019-09-18 17:00:00 26.5 0 Calma 14 Sudeste 0 -- -- 47
2019-09-18 16:00:00 26.2 6 Sur 13 Sudeste 0 -- -- 48
2019-09-18 15:00:00 24.1 4 Este 7 Noroeste 0 -- -- 54
2019-09-18 14:00:00 23.2 2 Sudeste 8 Este 0 -- -- 57
2019-09-18 13:00:00 22.9 3 Norte 19 Norte 0 -- -- 59
2019-09-18 12:00:00 22.5 10 Nordeste 19 Nordeste 0 -- -- 59
2019-09-18 11:00:00 22 10 Nordeste 18 Nordeste 0 -- -- 63
2019-09-18 10:00:00 20.4 4 Este 7 Este 0 -- -- 68
2019-09-18 09:00:00 16.8 3 Sudoeste 14 Oeste 0 -- -- 81
2019-09-18 08:00:00 15.4 2 Sudeste 9 Oeste 0 -- -- 84
2019-09-18 07:00:00 16.3 3 Sudoeste 6 Sudoeste 0 -- -- 82
2019-09-18 06:00:00 17.8 4 Sur 8 Sur 0 -- -- 78
2019-09-18 05:00:00 18.9 3 Este 19 Este 0 -- -- 70
2019-09-18 04:00:00 20.2 11 Nordeste 31 Oeste 0 -- -- 61
2019-09-18 03:00:00 20.3 19 Oeste 42 Oeste 0 -- -- 62
2019-09-18 02:00:00 20.6 21 Oeste 46 Oeste 0 -- -- 63
2019-09-18 01:00:00 22.5 12 Oeste 28 Oeste 0 -- -- 52
2019-09-18 00:00:00 22.1 14 Oeste 20 Oeste 0 -- -- 57
2019-09-17 23:00:00 20.9 7 Oeste 10 Oeste 0 -- -- 70
2019-09-17 22:00:00 21.7 5 Oeste 8 Oeste 0 -- -- 69
2019-09-17 21:00:00 23.2 4 Oeste 14 Oeste 0 -- -- 60